South Amboy, New Jersey
Current Conditions -  °F | °C
As of 6:35 PM on Monday 20 Oct 2014 (Local Time) from KLDJ Reporting Station
Clear Clear  
Wind Chill: 17°   Ceiling: Unl
Heat Index: 17°   Visibility: 10mi
Dew Point:   Wind: 0mph
Humidity: 44%   Direction: NA
Pressure: 29.99"   Gusts: NA
Location:  40.48°N, 74.28°W
Report Text: KLDJ 202235Z AUTO 00000KT 10SM CLR 17/04 A2999 RMK AO2 T01680043
Loading
Personal Weather Stations






























Interactive Weather Map
Tropical Storm Tracking
New forecast layout! Learn more

10-Day Weather Forecast

Advertisements
Track Severe Weather on mobile